Time;durP1;ratioP1;P1;durP2;ratioP2;P2;SDS_P1;SDS_P2;PMS_P1;PMS_P2;Temp;Humidity;BMP_temperature;BMP_pressure;BME280_temperature;BME280_humidity;BME280_pressure;Samples;Min_cycle;Max_cycle;Signal;HPM_P1;HPM_P2
2022/04/09 00:00:13;;;;;;;;;8.00;4.00;;;;;5.23;93.46;100816.41;5029094;28;45464;-70
2022/04/09 00:02:39;;;;;;;;;8.25;4.00;;;;;5.29;93.61;100826.72;5030870;28;45595;-70
2022/04/09 00:05:05;;;;;;;;;4.00;4.00;;;;;5.37;93.43;100822.19;5031228;28;45594;-70
2022/04/09 00:07:30;;;;;;;;;5.50;5.50;;;;;5.46;93.31;100819.41;5031418;28;45457;-70
2022/04/09 00:09:56;;;;;;;;;2.50;2.50;;;;;5.53;93.62;100827.94;5031482;28;45635;-70
2022/04/09 00:12:21;;;;;;;;;5.50;4.00;;;;;5.55;93.27;100812.28;5031382;28;45768;-70
2022/04/09 00:14:46;;;;;;;;;4.25;4.00;;;;;5.64;93.15;100831.22;5030611;28;45382;-70
2022/04/09 00:17:12;;;;;;;;;5.50;5.00;;;;;5.68;92.45;100832.84;5011796;28;45793;-70
2022/04/09 00:19:37;;;;;;;;;6.00;2.00;;;;;5.71;92.86;100834.53;5030587;28;46957;-70
2022/04/09 00:22:03;;;;;;;;;7.00;4.75;;;;;5.85;92.45;100855.97;5027414;28;45489;-70
2022/04/09 00:24:29;;;;;;;;;5.25;4.75;;;;;5.87;92.64;100867.22;5033714;28;45837;-70
2022/04/09 00:26:54;;;;;;;;;4.00;3.00;;;;;5.87;92.39;100861.16;5033811;28;45533;-70
2022/04/09 00:29:19;;;;;;;;;5.50;4.00;;;;;5.89;92.19;100862.81;5030914;28;45497;-70
2022/04/09 00:31:45;;;;;;;;;4.00;4.00;;;;;5.90;92.10;100869.78;5033350;28;45670;-70
2022/04/09 00:34:10;;;;;;;;;2.00;2.00;;;;;5.91;92.10;100874.13;5033539;28;47710;-69
2022/04/09 00:36:35;;;;;;;;;5.00;4.25;;;;;5.93;92.30;100868.88;5035335;28;45291;-69
2022/04/09 00:39:01;;;;;;;;;8.00;4.00;;;;;5.93;92.31;100874.94;5036971;28;45399;-69
2022/04/09 00:41:26;;;;;;;;;4.00;4.00;;;;;5.95;92.08;100875.78;5036622;28;47037;-69
2022/04/09 00:43:54;;;;;;;;;4.00;4.00;;;;;5.98;92.09;100877.47;5033974;28;45970;-69
2022/04/09 00:46:19;;;;;;;;;4.50;4.00;;;;;6.00;91.73;100880.88;5014158;28;45476;-70
2022/04/09 00:48:45;;;;;;;;;5.00;4.00;;;;;6.16;91.96;100884.88;5031794;28;45275;-70
2022/04/09 00:51:10;;;;;;;;;3.50;3.50;;;;;6.06;92.07;100888.59;5036471;28;46193;-70
2022/04/09 00:53:39;;;;;;;;;5.75;4.00;;;;;6.07;91.68;100890.31;5036153;28;45468;-70
2022/04/09 00:56:15;;;;;;;;;5.00;5.00;;;;;6.09;91.57;100891.13;5036467;28;45499;-70
2022/04/09 00:58:47;;;;;;;;;5.00;5.00;;;;;6.09;91.40;100893.72;5034858;28;45534;-70
2022/04/09 01:01:16;;;;;;;;;5.00;5.00;;;;;6.11;91.28;100891.97;5033019;28;46272;-70
2022/04/09 01:03:42;;;;;;;;;1.00;0.00;;;;;6.13;91.34;100899.75;5037234;28;45928;-70
2022/04/09 01:06:08;;;;;;;;;5.00;4.75;;;;;6.16;91.33;100897.06;5036275;28;45475;-70
2022/04/09 01:08:34;;;;;;;;;7.75;5.75;;;;;6.17;91.52;100898.78;5035070;28;45359;-70
2022/04/09 01:11:00;;;;;;;;;5.33;5.33;;;;;6.20;91.71;100896.94;5035578;28;45546;-70
2022/04/09 01:13:25;;;;;;;;;4.25;4.25;;;;;6.23;91.48;100899.50;5032147;28;45510;-70
2022/04/09 01:15:50;;;;;;;;;8.00;6.00;;;;;6.24;91.52;100900.38;5035669;28;45359;-71
2022/04/09 01:18:17;;;;;;;;;9.25;6.00;;;;;6.27;91.62;100906.38;5034105;28;45680;-71
2022/04/09 01:20:43;;;;;;;;;9.25;5.50;;;;;6.31;91.50;100906.28;5035123;28;45534;-71
2022/04/09 01:23:09;;;;;;;;;6.00;4.75;;;;;6.32;91.22;100901.06;5033696;28;45878;-71
2022/04/09 01:25:35;;;;;;;;;6.25;4.75;;;;;6.34;91.31;100901.00;5034245;28;45495;-71
2022/04/09 01:28:01;;;;;;;;;6.25;5.00;;;;;6.37;91.29;100908.75;5033402;28;45554;-72
2022/04/09 01:30:26;;;;;;;;;5.00;5.00;;;;;6.39;91.28;100909.59;5033536;28;46219;-71
2022/04/09 01:32:52;;;;;;;;;5.25;5.00;;;;;6.42;91.74;100918.22;5035866;28;45526;-71
2022/04/09 01:35:17;;;;;;;;;8.00;8.00;;;;;6.39;91.15;100910.47;5035505;28;51617;-71
2022/04/09 01:37:42;;;;;;;;;9.00;6.50;;;;;6.45;91.28;100920.75;5033043;28;46789;-71
2022/04/09 01:40:08;;;;;;;;;8.25;5.25;;;;;6.46;91.27;100919.84;5032802;28;63110;-71
2022/04/09 01:42:36;;;;;;;;;8.00;4.75;;;;;6.47;91.68;100921.59;5032240;28;46001;-71
2022/04/09 01:45:05;;;;;;;;;9.25;5.00;;;;;6.49;91.60;100922.41;5030427;28;46929;-71
2022/04/09 01:47:31;;;;;;;;;10.00;4.00;;;;;6.50;91.47;100929.34;5034534;28;45592;-71
2022/04/09 01:49:56;;;;;;;;;8.75;5.75;;;;;6.52;91.42;100924.97;5034609;28;46359;-71
2022/04/09 01:52:21;;;;;;;;;8.75;6.50;;;;;6.54;91.39;100925.78;5016717;28;46014;-71
2022/04/09 01:54:47;;;;;;;;;6.00;6.00;;;;;6.54;91.62;100931.00;5036250;28;45398;-71
2022/04/09 01:57:13;;;;;;;;;12.67;5.67;;;;;6.54;91.21;100936.22;5031143;28;45334;-71
2022/04/09 01:59:40;;;;;;;;;5.25;5.25;;;;;6.56;91.60;100944.00;5031822;28;47203;-71
2022/04/09 02:02:05;;;;;;;;;10.25;6.25;;;;;6.56;90.97;100951.84;5030923;28;45320;-71
2022/04/09 02:04:30;;;;;;;;;4.75;4.75;;;;;6.58;91.45;100957.00;5032436;28;45564;-71
2022/04/09 02:06:56;;;;;;;;;5.50;4.00;;;;;6.57;91.04;100960.53;5034551;28;45410;-71
2022/04/09 02:09:21;;;;;;;;;11.50;5.00;;;;;6.58;91.18;100970.06;5035508;28;45807;-71
2022/04/09 02:11:46;;;;;;;;;7.33;5.00;;;;;6.56;90.78;100964.88;5034191;28;49124;-71
2022/04/09 02:14:12;;;;;;;;;2.00;2.00;;;;;6.58;90.69;100965.72;5028444;28;45523;-71
2022/04/09 02:16:38;;;;;;;;;4.50;4.50;;;;;6.60;90.14;100965.69;5033140;28;46878;-71
2022/04/09 02:19:04;;;;;;;;;3.25;2.00;;;;;6.61;89.90;100968.25;5019339;28;45501;-71
2022/04/09 02:21:30;;;;;;;;;3.75;2.00;;;;;6.64;89.98;100964.72;5035977;28;45418;-71
2022/04/09 02:23:55;;;;;;;;;4.00;1.25;;;;;6.65;89.88;100964.69;5026173;28;45425;-71
2022/04/09 02:26:21;;;;;;;;;2.00;2.00;;;;;6.67;89.78;100965.50;5031296;28;45466;-71
2022/04/09 02:28:48;;;;;;;;;7.00;4.00;;;;;6.66;89.92;100962.94;5031170;28;46306;-71
2022/04/09 02:31:15;;;;;;;;;3.00;3.00;;;;;6.68;90.07;100975.06;5032257;28;45929;-71
2022/04/09 02:33:41;;;;;;;;;5.00;3.25;;;;;6.68;89.62;100988.13;5035770;28;45532;-71
2022/04/09 02:36:09;;;;;;;;;1.50;1.50;;;;;6.68;89.64;100982.91;5034560;28;45333;-71
2022/04/09 02:38:34;;;;;;;;;2.50;2.50;;;;;6.64;89.52;100969.97;5034229;28;47198;-71
2022/04/09 02:41:00;;;;;;;;;2.00;1.75;;;;;6.67;89.35;100980.31;5034531;28;46215;-71
2022/04/09 02:43:25;;;;;;;;;4.50;3.25;;;;;6.67;89.38;100977.69;5034693;28;45389;-71
2022/04/09 02:45:50;;;;;;;;;2.75;2.00;;;;;6.67;89.75;100989.00;5031453;28;45387;-71
2022/04/09 02:48:16;;;;;;;;;3.75;2.25;;;;;6.65;89.72;100982.97;5016988;28;46061;-71
2022/04/09 02:50:41;;;;;;;;;4.00;1.75;;;;;6.66;89.12;100996.88;5029734;28;45388;-71
2022/04/09 02:53:10;;;;;;;;;2.75;2.75;;;;;6.66;89.12;101002.09;5034514;28;45327;-71
2022/04/09 02:55:35;;;;;;;;;2.00;2.00;;;;;6.66;89.31;100996.88;5034617;28;45615;-71
2022/04/09 02:58:01;;;;;;;;;1.75;1.75;;;;;6.64;89.50;100994.31;5033895;28;54877;-71
2022/04/09 03:00:27;;;;;;;;;4.00;4.00;;;;;6.65;89.16;100998.63;5034041;28;45488;-72
2022/04/09 03:02:52;;;;;;;;;5.00;4.00;;;;;6.66;89.23;101007.31;5030343;28;45565;-71
2022/04/09 03:05:17;;;;;;;;;5.00;3.25;;;;;6.67;89.64;101007.28;5029985;28;47630;-71
2022/04/09 03:07:43;;;;;;;;;2.50;1.50;;;;;6.66;89.47;101012.56;5031127;28;46198;-71
2022/04/09 03:10:09;;;;;;;;;4.50;4.50;;;;;6.67;89.32;101009.03;5033389;28;45557;-71
2022/04/09 03:12:34;;;;;;;;;5.75;4.50;;;;;6.68;89.14;101014.25;5024923;28;45380;-71
2022/04/09 03:15:00;;;;;;;;;5.50;4.00;;;;;6.69;89.17;101013.34;5020135;28;45554;-71
2022/04/09 03:17:25;;;;;;;;;4.75;4.25;;;;;6.70;89.54;101011.59;5029611;28;45726;-70
2022/04/09 03:19:50;;;;;;;;;6.00;4.50;;;;;6.73;89.17;101024.56;5030353;28;45410;-70
2022/04/09 03:22:16;;;;;;;;;7.33;5.00;;;;;6.74;89.22;101036.75;5031141;28;53998;-71
2022/04/09 03:24:41;;;;;;;;;8.50;5.25;;;;;6.74;89.43;101050.69;5034075;28;45421;-70
2022/04/09 03:27:06;;;;;;;;;7.25;7.25;;;;;6.76;89.81;101050.63;5029607;28;46039;-70
2022/04/09 03:29:32;;;;;;;;;9.33;7.33;;;;;6.77;89.79;101057.56;5032739;28;59819;-70
2022/04/09 03:31:59;;;;;;;;;8.00;5.50;;;;;6.73;89.76;101050.69;5029214;28;45538;-70
2022/04/09 03:34:24;;;;;;;;;14.25;6.75;;;;;6.75;89.88;101056.75;5033201;28;45530;-71
2022/04/09 03:36:49;;;;;;;;;8.25;8.00;;;;;6.75;89.71;101064.59;5034902;28;46024;-70
2022/04/09 03:39:15;;;;;;;;;6.00;6.00;;;;;6.73;89.99;101055.91;5033131;28;45422;-70
2022/04/09 03:41:40;;;;;;;;;9.25;5.00;;;;;6.68;89.77;101048.22;5015470;28;45538;-71
2022/04/09 03:44:06;;;;;;;;;9.25;7.00;;;;;6.68;89.76;101050.81;5029334;28;45459;-70
2022/04/09 03:46:31;;;;;;;;;8.50;8.50;;;;;6.68;89.98;101047.31;5025601;28;45976;-70
2022/04/09 03:48:56;;;;;;;;;7.00;5.75;;;;;6.66;89.36;101056.94;5029012;28;45449;-70
2022/04/09 03:51:22;;;;;;;;;7.33;7.33;;;;;6.63;89.49;101057.00;5033841;28;46894;-70
2022/04/09 03:53:47;;;;;;;;;6.25;5.50;;;;;6.62;89.16;101070.97;5031772;28;45381;-70
2022/04/09 03:56:12;;;;;;;;;7.25;6.75;;;;;6.59;88.94;101091.94;5029631;28;45503;-70
2022/04/09 03:58:38;;;;;;;;;6.75;4.50;;;;;6.57;88.63;101094.56;5030242;28;45472;-70
2022/04/09 04:01:04;;;;;;;;;6.25;5.75;;;;;6.52;88.80;101089.44;5027502;28;45599;-70
2022/04/09 04:03:29;;;;;;;;;6.50;6.50;;;;;6.50;89.29;101092.97;5021605;28;45489;-70
2022/04/09 04:05:54;;;;;;;;;6.00;5.00;;;;;6.48;89.18;101107.81;5032680;28;45952;-71
2022/04/09 04:08:20;;;;;;;;;6.00;6.00;;;;;6.47;89.02;101099.13;5028117;28;45512;-71
2022/04/09 04:10:46;;;;;;;;;9.50;8.25;;;;;6.45;89.68;101093.06;5031974;28;45519;-70
2022/04/09 04:13:11;;;;;;;;;7.75;6.50;;;;;6.47;89.31;101095.63;5021709;28;45311;-70
2022/04/09 04:15:37;;;;;;;;;9.00;6.00;;;;;6.43;89.22;101100.06;5037395;28;46031;-70
2022/04/09 04:18:03;;;;;;;;;6.00;4.00;;;;;6.42;88.88;101100.09;5025578;28;45336;-71
2022/04/09 04:20:28;;;;;;;;;6.25;5.00;;;;;6.38;88.41;101099.31;5034581;28;45352;-70
2022/04/09 04:22:54;;;;;;;;;4.00;2.25;;;;;6.37;88.23;101099.31;5026565;28;45324;-70
2022/04/09 04:25:20;;;;;;;;;6.00;5.00;;;;;6.34;88.28;101094.19;5036878;28;47056;-70
2022/04/09 04:27:49;;;;;;;;;4.75;4.75;;;;;6.30;88.01;101095.13;5040158;28;45735;-70
2022/04/09 04:30:14;;;;;;;;;6.50;5.75;;;;;6.29;88.56;101094.25;5037044;28;45373;-70
2022/04/09 04:32:41;;;;;;;;;5.00;4.50;;;;;6.29;88.59;101094.25;5036958;28;45504;-70
2022/04/09 04:35:08;;;;;;;;;4.75;4.75;;;;;6.28;88.38;101092.53;5039924;28;46141;-71
2022/04/09 04:37:40;;;;;;;;;3.50;3.50;;;;;6.27;88.37;101101.28;5039180;28;45945;-70
2022/04/09 04:40:07;;;;;;;;;3.50;2.00;;;;;6.26;88.43;101096.91;5038491;28;45550;-70
2022/04/09 04:42:32;;;;;;;;;4.00;4.00;;;;;6.27;88.70;101096.91;5037616;28;45393;-71
2022/04/09 04:44:58;;;;;;;;;4.25;2.00;;;;;6.27;88.18;101098.66;5034923;28;46006;-70
2022/04/09 04:47:23;;;;;;;;;5.50;2.00;;;;;6.29;88.00;101094.25;5039333;28;45638;-70
2022/04/09 04:49:48;;;;;;;;;7.00;4.00;;;;;6.29;87.87;101091.66;5034045;28;45469;-70
2022/04/09 04:52:14;;;;;;;;;6.00;2.00;;;;;6.28;88.37;101089.94;5039366;28;50340;-70
2022/04/09 04:54:42;;;;;;;;;4.25;2.00;;;;;6.26;88.44;101089.09;5030723;28;48533;-71
2022/04/09 04:57:07;;;;;;;;;3.50;3.50;;;;;6.27;88.10;101091.69;5036702;28;45879;-71
2022/04/09 04:59:33;;;;;;;;;2.00;2.00;;;;;6.24;88.05;101094.34;5033717;28;45446;-71
2022/04/09 05:01:58;;;;;;;;;2.00;2.00;;;;;6.26;88.42;101099.53;5035096;28;45436;-71
2022/04/09 05:04:25;;;;;;;;;7.25;2.50;;;;;6.25;87.98;101106.50;5038070;28;45459;-71
2022/04/09 05:06:51;;;;;;;;;5.00;2.75;;;;;6.25;88.11;101097.81;5036086;28;45366;-70
2022/04/09 05:09:17;;;;;;;;;4.00;4.00;;;;;6.28;88.03;101103.00;5036626;28;46867;-71
2022/04/09 05:11:42;;;;;;;;;3.50;3.50;;;;;6.31;87.90;101113.34;5037938;28;45718;-70
2022/04/09 05:14:07;;;;;;;;;4.75;4.75;;;;;6.33;88.21;101118.56;5034937;28;45407;-70
2022/04/09 05:16:32;;;;;;;;;4.50;4.00;;;;;6.37;88.73;101121.09;5037091;28;45468;-70
2022/04/09 05:18:58;;;;;;;;;6.50;5.00;;;;;6.39;88.35;101121.03;5033635;28;45418;-70
2022/04/09 05:21:25;;;;;;;;;5.00;5.00;;;;;6.41;88.83;101120.13;5034177;28;45385;-70
2022/04/09 05:23:50;;;;;;;;;7.00;7.00;;;;;6.42;88.74;101119.25;5029727;28;47631;-71
2022/04/09 05:26:15;;;;;;;;;6.00;5.33;;;;;6.44;88.38;101135.72;5033685;28;45885;-70
2022/04/09 05:28:41;;;;;;;;;4.00;4.00;;;;;6.43;88.62;101123.56;5030239;28;47408;-71
2022/04/09 05:31:08;;;;;;;;;4.75;4.00;;;;;6.45;88.26;101118.31;5024357;28;45652;-71
2022/04/09 05:33:34;;;;;;;;;7.50;7.50;;;;;6.47;88.80;101132.19;5033966;28;45414;-71
2022/04/09 05:35:59;;;;;;;;;10.00;6.50;;;;;6.48;88.27;101118.25;5033416;28;49702;-71
2022/04/09 05:38:25;;;;;;;;;9.25;6.00;;;;;6.49;88.41;101123.44;5034967;28;45335;-71
2022/04/09 05:40:50;;;;;;;;;10.50;6.50;;;;;6.50;88.08;101116.47;5032033;28;45808;-70
2022/04/09 05:43:15;;;;;;;;;6.00;4.25;;;;;6.49;87.60;101114.75;5033003;28;47705;-71
2022/04/09 05:45:41;;;;;;;;;10.67;8.00;;;;;6.46;87.37;101117.41;5034766;28;51052;-71
2022/04/09 05:48:06;;;;;;;;;8.25;6.00;;;;;6.45;87.88;101121.78;5034153;28;45455;-71
2022/04/09 05:50:32;;;;;;;;;4.50;4.00;;;;;6.46;87.83;101128.72;5027568;28;45479;-71
2022/04/09 05:52:57;;;;;;;;;9.25;8.00;;;;;6.51;87.86;101144.28;5028204;28;45338;-70
2022/04/09 05:55:23;;;;;;;;;9.00;6.00;;;;;6.54;87.90;101142.50;5023562;28;45555;-70
2022/04/09 05:57:48;;;;;;;;;7.75;5.75;;;;;6.59;88.15;101147.63;5033968;28;45255;-70
2022/04/09 06:00:16;;;;;;;;;12.50;8.25;;;;;6.64;88.64;101148.41;5025021;28;45305;-70
2022/04/09 06:02:42;;;;;;;;;8.75;6.00;;;;;6.69;88.78;101145.69;5027820;28;46371;-70
2022/04/09 06:05:08;;;;;;;;;10.00;10.00;;;;;6.73;88.67;101155.16;5033943;28;45363;-70
2022/04/09 06:07:34;;;;;;;;;8.75;8.75;;;;;6.78;88.93;101163.75;5034809;28;45465;-71
2022/04/09 06:10:00;;;;;;;;;10.25;8.00;;;;;6.83;88.70;101161.91;5035400;28;45354;-71
2022/04/09 06:12:26;;;;;;;;;13.00;9.00;;;;;6.86;88.66;101156.66;5030551;28;47107;-70
2022/04/09 06:14:51;;;;;;;;;12.50;9.00;;;;;6.92;88.70;101166.09;5029157;28;45441;-71
2022/04/09 06:17:16;;;;;;;;;13.00;10.00;;;;;6.96;88.70;101165.16;5028422;28;45671;-71
2022/04/09 06:19:43;;;;;;;;;14.00;11.00;;;;;7.02;88.57;101173.72;5034634;28;45509;-71
2022/04/09 06:22:09;;;;;;;;;12.50;9.00;;;;;7.05;88.85;101168.44;5027731;28;46203;-71
2022/04/09 06:24:34;;;;;;;;;13.75;9.50;;;;;7.09;87.98;101170.97;5034408;28;45577;-71
2022/04/09 06:26:59;;;;;;;;;10.00;9.00;;;;;7.12;88.19;101178.75;5025023;28;45421;-71
2022/04/09 06:29:24;;;;;;;;;16.75;13.75;;;;;7.14;87.75;101177.81;5027276;28;45552;-70
2022/04/09 06:31:50;;;;;;;;;15.33;9.67;;;;;7.18;87.57;101186.47;5021629;28;46096;-70
2022/04/09 06:34:16;;;;;;;;;13.00;12.50;;;;;7.18;87.50;101184.69;5029507;28;45950;-71
2022/04/09 06:36:42;;;;;;;;;17.75;11.25;;;;;7.19;86.91;101191.66;5025687;28;45311;-71
2022/04/09 06:39:07;;;;;;;;;11.00;7.00;;;;;7.21;86.85;101194.25;5028354;28;45385;-71
2022/04/09 06:41:33;;;;;;;;;12.00;10.50;;;;;7.22;86.58;101201.19;5034471;28;47896;-70
2022/04/09 06:43:59;;;;;;;;;11.00;10.75;;;;;7.26;87.23;101208.09;5031544;28;45745;-71
2022/04/09 06:46:25;;;;;;;;;9.50;9.50;;;;;7.27;87.27;101207.19;5028588;28;45342;-71
2022/04/09 06:48:51;;;;;;;;;13.00;10.00;;;;;7.29;87.44;101206.22;5031327;28;45435;-71
2022/04/09 06:51:16;;;;;;;;;9.00;9.00;;;;;7.26;86.99;101201.09;5030404;28;45539;-71
2022/04/09 06:53:41;;;;;;;;;11.50;10.00;;;;;7.33;86.84;101207.91;5032512;28;45436;-71
2022/04/09 06:56:07;;;;;;;;;14.00;11.25;;;;;7.37;86.83;101215.69;5023796;28;45411;-71
2022/04/09 06:58:34;;;;;;;;;15.00;10.25;;;;;7.42;87.49;101213.81;5033464;28;45554;-71
2022/04/09 07:00:59;;;;;;;;;8.50;6.25;;;;;7.47;87.23;101217.19;5033864;28;46288;-71
2022/04/09 07:03:26;;;;;;;;;15.50;14.50;;;;;7.52;87.26;101225.81;5024105;28;45496;-70
2022/04/09 07:05:51;;;;;;;;;13.00;11.00;;;;;7.54;86.83;101230.09;5027311;28;45297;-71
2022/04/09 07:08:17;;;;;;;;;13.67;10.00;;;;;7.59;87.08;101228.22;5027358;28;45798;-71
2022/04/09 07:10:42;;;;;;;;;17.75;14.75;;;;;7.63;87.66;101228.19;5032904;28;45833;-71
2022/04/09 07:13:08;;;;;;;;;10.75;9.25;;;;;7.65;87.27;101222.00;5033698;28;45452;-70
2022/04/09 07:15:34;;;;;;;;;14.75;13.50;;;;;7.68;87.09;101236.78;5034264;28;45399;-71
2022/04/09 07:17:59;;;;;;;;;11.50;10.25;;;;;7.71;86.82;101232.31;5028730;28;45463;-71
2022/04/09 07:20:25;;;;;;;;;12.00;8.50;;;;;7.78;86.69;101238.28;5028594;28;45453;-71
2022/04/09 07:22:50;;;;;;;;;19.00;13.00;;;;;7.81;87.08;101236.44;5033996;28;45627;-71
2022/04/09 07:25:18;;;;;;;;;16.75;10.25;;;;;7.88;87.23;101229.28;5030729;28;45764;-71
2022/04/09 07:27:46;;;;;;;;;14.75;10.50;;;;;7.91;87.03;101237.09;5029730;28;47043;-70
2022/04/09 07:30:14;;;;;;;;;12.50;12.50;;;;;7.93;86.86;101232.66;5024706;28;46015;-70
2022/04/09 07:32:40;;;;;;;;;10.50;10.50;;;;;7.97;86.46;101236.06;5025903;28;45520;-70
2022/04/09 07:35:07;;;;;;;;;9.75;9.50;;;;;7.93;86.40;101237.91;5031686;28;45583;-71
2022/04/09 07:37:32;;;;;;;;;13.50;12.00;;;;;7.92;86.22;101236.19;5025733;28;45722;-70
2022/04/09 07:39:58;;;;;;;;;13.00;11.00;;;;;7.92;86.20;101241.41;5029466;28;46294;-67
2022/04/09 07:42:24;;;;;;;;;12.25;11.25;;;;;7.93;86.90;101235.28;5022363;28;45427;-70
2022/04/09 07:44:49;;;;;;;;;9.00;9.00;;;;;7.92;86.88;101241.41;5023978;28;45456;-70
2022/04/09 07:47:15;;;;;;;;;11.50;9.00;;;;;7.96;86.95;101253.53;5020831;28;45737;-70
2022/04/09 07:49:44;;;;;;;;;10.00;9.25;;;;;8.00;87.25;101252.59;5024569;28;46998;-69
2022/04/09 07:52:13;;;;;;;;;7.75;7.75;;;;;8.06;87.34;101252.44;5017813;28;45999;-70
2022/04/09 07:54:38;;;;;;;;;14.50;10.75;;;;;8.13;87.28;101263.59;5021968;28;45429;-70
2022/04/09 07:57:05;;;;;;;;;11.00;11.00;;;;;8.21;87.12;101269.53;5022957;28;45500;-70
2022/04/09 07:59:30;;;;;;;;;10.50;9.00;;;;;8.33;86.80;101263.09;5030794;28;47417;-69
2022/04/09 08:01:55;;;;;;;;;6.25;6.25;;;;;8.53;86.72;101266.13;5023927;28;52785;-69
2022/04/09 08:04:20;;;;;;;;;7.00;7.00;;;;;8.80;86.41;101272.38;5033559;28;45457;-69
2022/04/09 08:06:46;;;;;;;;;11.00;6.75;;;;;9.02;86.24;101261.31;5029682;28;45429;-69
2022/04/09 08:09:11;;;;;;;;;8.00;6.67;;;;;9.19;85.53;101263.44;5023379;28;55672;-69
2022/04/09 08:11:36;;;;;;;;;10.00;9.00;;;;;9.24;85.40;101267.69;5022359;28;45458;-69
2022/04/09 08:14:02;;;;;;;;;11.25;7.00;;;;;9.31;85.18;101271.81;5019696;28;45571;-69
2022/04/09 08:16:27;;;;;;;;;9.25;7.00;;;;;9.35;84.54;101272.59;5018710;28;45465;-69
2022/04/09 08:18:52;;;;;;;;;10.00;9.00;;;;;9.39;84.63;101274.22;5030042;28;45445;-69
2022/04/09 08:21:18;;;;;;;;;11.75;10.00;;;;;9.46;84.43;101278.41;5038375;28;45559;-69
2022/04/09 08:23:44;;;;;;;;;10.50;10.00;;;;;9.57;84.66;101280.69;5032820;28;45612;-69
2022/04/09 08:26:09;;;;;;;;;16.50;10.75;;;;;9.68;84.25;101282.09;5030033;28;45487;-69
2022/04/09 08:28:36;;;;;;;;;12.25;10.50;;;;;9.74;83.54;101277.56;5033319;28;46293;-70
2022/04/09 08:31:02;;;;;;;;;8.00;7.75;;;;;9.71;83.37;101281.16;5021577;28;46271;-69
2022/04/09 08:33:28;;;;;;;;;14.50;10.00;;;;;9.74;83.20;101280.19;5024764;28;45405;-69
2022/04/09 08:35:53;;;;;;;;;8.00;8.00;;;;;9.85;82.92;101283.31;5021103;28;45680;-70
2022/04/09 08:38:18;;;;;;;;;8.50;6.75;;;;;9.97;82.70;101276.81;5024357;28;45987;-70
2022/04/09 08:40:45;;;;;;;;;18.00;11.25;;;;;10.08;82.40;101293.97;5023615;28;45470;-70
2022/04/09 08:43:11;;;;;;;;;10.00;8.00;;;;;10.24;82.13;101301.41;5020647;28;45529;-70
2022/04/09 08:45:40;;;;;;;;;10.25;9.50;;;;;10.53;81.71;101296.00;5030601;28;45492;-70
2022/04/09 08:48:07;;;;;;;;;7.50;6.00;;;;;10.98;81.53;101297.97;5031323;28;46955;-70
2022/04/09 08:50:33;;;;;;;;;14.25;13.00;;;;;11.37;79.97;101307.94;5028854;28;45943;-70
2022/04/09 08:53:05;;;;;;;;;40.50;33.75;;;;;11.51;79.60;101305.66;5032575;28;45591;-71
2022/04/09 08:55:30;;;;;;;;;9.25;8.00;;;;;11.72;79.91;101306.63;5029973;28;45724;-69
2022/04/09 08:57:56;;;;;;;;;9.00;7.25;;;;;12.05;79.28;101309.72;5033040;28;45571;-68
2022/04/09 09:00:21;;;;;;;;;7.00;7.00;;;;;12.47;78.97;101315.03;5013096;28;45932;-69
2022/04/09 09:02:51;;;;;;;;;7.50;6.50;;;;;12.74;77.44;101312.19;5032651;28;45549;-69
2022/04/09 09:05:42;;;;;;;;;11.75;10.75;;;;;12.72;76.72;101308.75;5031738;28;45475;-69
2022/04/09 09:08:10;;;;;;;;;13.25;9.25;;;;;12.51;75.64;101316.63;5022816;28;45458;-69
2022/04/09 09:10:36;;;;;;;;;8.75;8.00;;;;;12.31;75.54;101316.59;5023251;28;45492;-69
2022/04/09 09:13:11;;;;;;;;;10.25;8.75;;;;;12.04;74.87;101328.25;5032112;28;45405;-69
2022/04/09 09:15:46;;;;;;;;;11.25;10.25;;;;;11.80;75.28;101324.75;5030945;28;45308;-69
2022/04/09 09:18:22;;;;;;;;;13.75;9.75;;;;;11.69;75.05;101330.44;5030885;28;45452;-69
2022/04/09 09:20:52;;;;;;;;;8.00;8.00;;;;;11.71;75.77;101325.97;5028537;28;45559;-69
2022/04/09 09:23:31;;;;;;;;;9.25;9.25;;;;;11.72;76.05;101331.19;5024397;28;45575;-69
2022/04/09 09:25:58;;;;;;;;;13.25;9.50;;;;;11.63;74.99;101334.16;5023539;28;45462;-69
2022/04/09 09:28:28;;;;;;;;;10.25;8.50;;;;;11.53;75.12;101334.56;5032014;28;46303;-69
2022/04/09 09:30:55;;;;;;;;;9.25;7.50;;;;;11.36;75.10;101348.34;5033066;28;45745;-69
2022/04/09 09:33:21;;;;;;;;;10.75;10.00;;;;;11.15;74.74;101345.56;5031412;28;45809;-69
2022/04/09 09:36:00;;;;;;;;;13.00;9.00;;;;;10.96;74.87;101352.38;5034178;28;45330;-69
2022/04/09 09:38:28;;;;;;;;;8.50;8.25;;;;;10.75;74.71;101355.75;5031605;28;47277;-69
2022/04/09 09:40:54;;;;;;;;;14.75;12.00;;;;;10.56;75.54;101364.25;5031908;28;45433;-68
2022/04/09 09:43:21;;;;;;;;;13.00;10.50;;;;;10.43;75.46;101379.53;5030723;28;45582;-69
2022/04/09 09:45:48;;;;;;;;;12.00;12.00;;;;;10.34;75.83;101371.13;5027857;28;45381;-69
2022/04/09 09:48:24;;;;;;;;;12.75;9.25;;;;;10.36;76.23;101377.19;5034598;28;46620;-68
2022/04/09 09:50:51;;;;;;;;;10.50;9.00;;;;;10.37;76.50;101379.75;5029321;28;45548;-67
2022/04/09 09:53:26;;;;;;;;;12.50;11.75;;;;;10.45;76.31;101385.63;5033417;28;46008;-68
2022/04/09 09:55:52;;;;;;;;;18.00;13.25;;;;;10.53;75.82;101384.50;5027337;28;45328;-68
2022/04/09 09:58:20;;;;;;;;;13.75;12.25;;;;;10.63;75.85;101394.69;5033257;28;45523;-67
2022/04/09 10:00:47;;;;;;;;;14.75;9.00;;;;;10.71;75.54;101397.06;5023414;28;46010;-69
2022/04/09 10:03:13;;;;;;;;;13.50;11.50;;;;;10.75;75.97;101398.66;5033085;28;45457;-68
2022/04/09 10:05:40;;;;;;;;;14.50;12.50;;;;;10.78;74.90;101398.56;5028918;28;45455;-69
2022/04/09 10:08:07;;;;;;;;;13.50;11.25;;;;;10.76;75.64;101410.94;5031506;28;46247;-70
2022/04/09 10:10:37;;;;;;;;;12.75;10.50;;;;;10.76;75.32;101410.06;5015518;28;45434;-70
2022/04/09 10:13:06;;;;;;;;;13.25;9.25;;;;;10.73;76.00;101416.28;5032654;28;45402;-70
2022/04/09 10:15:32;;;;;;;;;14.50;11.00;;;;;10.72;75.32;101419.81;5030248;28;45522;-69
2022/04/09 10:18:00;;;;;;;;;21.00;15.75;;;;;10.71;75.25;101421.59;5031310;28;46497;-69
2022/04/09 10:20:28;;;;;;;;;14.00;10.75;;;;;10.75;75.54;101424.09;5029303;28;45425;-70
2022/04/09 10:22:58;;;;;;;;;230.25;187.25;;;;;10.83;75.35;101429.97;5031080;28;45498;-69
2022/04/09 10:25:32;;;;;;;;;12.50;11.00;;;;;10.83;74.99;101428.22;5033185;28;45681;-69
2022/04/09 10:28:03;;;;;;;;;11.25;8.25;;;;;10.90;75.00;101439.38;5033318;28;45579;-69
2022/04/09 10:30:39;;;;;;;;;12.75;11.50;;;;;10.90;74.57;101440.22;5029985;28;45819;-69
2022/04/09 10:33:20;;;;;;;;;15.25;12.25;;;;;10.87;74.70;101439.50;5030291;28;45759;-69
2022/04/09 10:35:46;;;;;;;;;13.75;10.00;;;;;10.82;74.53;101430.91;5024021;28;45495;-69
2022/04/09 10:38:20;;;;;;;;;9.50;9.50;;;;;10.80;74.08;101437.94;5022091;28;45953;-69
2022/04/09 10:40:45;;;;;;;;;12.00;9.50;;;;;10.84;74.59;101440.44;5028785;28;45488;-69
2022/04/09 10:43:26;;;;;;;;;11.67;8.67;;;;;10.76;73.86;101452.13;5028207;28;45512;-69
2022/04/09 10:46:00;;;;;;;;;10.00;9.75;;;;;10.62;73.50;101452.56;5032339;28;45598;-71
2022/04/09 10:48:39;;;;;;;;;11.75;11.25;;;;;10.51;73.72;101459.94;5030694;28;45405;-71
2022/04/09 10:51:14;;;;;;;;;15.50;12.75;;;;;10.44;74.70;101454.00;5029991;28;45866;-67
2022/04/09 10:53:45;;;;;;;;;12.25;12.25;;;;;10.46;75.05;101462.69;5030673;28;45476;-70
2022/04/09 10:56:32;;;;;;;;;13.75;11.00;;;;;10.55;75.23;101458.94;5027077;28;45492;-69
2022/04/09 10:59:16;;;;;;;;;12.25;11.50;;;;;10.64;74.40;101463.88;5033321;28;45986;-69
2022/04/09 11:04:37;;;;;;;;;11.75;9.00;;;;;10.83;74.20;101465.00;5028450;28;45621;-70
2022/04/09 11:07:17;;;;;;;;;17.25;13.25;;;;;10.91;73.70;101462.13;5031272;28;45380;-69
2022/04/09 11:09:50;;;;;;;;;12.75;11.00;;;;;11.06;73.38;101460.75;5008862;28;47283;-70
2022/04/09 11:12:21;;;;;;;;;17.75;13.00;;;;;11.21;73.57;101470.78;5034591;28;45314;-70
2022/04/09 11:15:00;;;;;;;;;14.00;13.00;;;;;11.32;73.26;101473.91;5029934;28;45448;-71
2022/04/09 11:17:39;;;;;;;;;20.75;12.00;;;;;11.38;72.96;101481.59;5033478;28;45564;-71
2022/04/09 11:20:12;;;;;;;;;15.25;10.25;;;;;11.45;72.66;101485.72;5029416;28;46013;-71
2022/04/09 11:22:43;;;;;;;;;18.50;14.25;;;;;11.56;72.43;101482.72;5032459;28;45897;-71
2022/04/09 11:25:16;;;;;;;;;13.75;12.00;;;;;11.72;72.07;101481.28;5032804;28;45627;-71
2022/04/09 11:27:42;;;;;;;;;17.25;12.00;;;;;11.90;72.04;101478.91;5035891;28;45608;-69